GMT,Max TemperatureF,Mean TemperatureF,Min TemperatureF,Max Dew PointF,MeanDew PointF,Min DewpointF,Max Humidity, Mean Humidity, Min Humidity, Max Sea Level PressureIn, Mean Sea Level PressureIn, Min Sea Level PressureIn, Max VisibilityMiles, Mean VisibilityMiles, Min VisibilityMiles, Max Wind SpeedMPH, Mean Wind SpeedMPH, Max Gust SpeedMPH,PrecipitationIn, CloudCover, Events, WindDirDegrees
2013-1-1,45,41,37,45,35,32,93,76,57,30.06,29.78,29.50,19,7,6,15,10,,0.00,2,,267
2013-1-2,51,43,35,48,41,34,94,86,72,30.34,30.22,30.06,19,8,5,10,7,,0.01,7,Rain,250
2013-1-3,52,50,48,48,47,46,94,85,75,30.62,30.50,30.33,19,7,5,13,9,,0.00,7,,266
2013-1-4,50,48,46,45,43,41,87,79,68,30.66,30.62,30.60,19,7,6,14,11,,0.00,7,,272
2013-1-5,51,48,42,47,45,41,100,86,72,30.60,30.56,30.51,17,6,3,13,8,,0.00,7,Rain,244
2013-1-6,48,44,39,46,43,38,100,92,82,30.53,30.46,30.39,14,4,0,7,3,,0.00,7,Fog,225
2013-1-7,48,46,44,45,43,41,93,86,79,30.39,30.30,30.24,14,7,4,12,8,,0.00,7,Rain,213
2013-1-8,52,49,46,47,45,43,93,81,68,30.27,30.23,30.18,19,8,4,10,7,,0.00,7,,221
2013-1-9,48,39,30,47,39,28,100,87,66,30.19,30.14,30.06,19,7,2,10,4,,0.00,6,,1
2013-1-10,38,33,28,34,32,27,100,90,79,30.06,29.99,29.92,6,4,0,8,4,,0.00,7,,329
2013-1-11,44,37,30,36,33,28,100,91,71,30.09,30.04,29.98,6,3,2,6,2,,0.00,4,,106
2013-1-12,40,36,33,36,31,23,93,73,42,29.98,29.90,29.86,19,7,3,17,11,,0.08,7,Rain,95
2013-1-13,37,34,30,30,28,26,87,76,61,30.15,30.09,29.98,16,8,6,13,10,,0.00,5,,19
2013-1-14,37,34,31,34,31,28,100,89,77,30.09,29.84,29.62,16,5,1,15,4,,0.12,7,Rain-Snow,235
2013-1-15,36,31,26,31,29,25,100,85,70,29.89,29.80,29.62,19,7,3,17,10,30,0.00,5,,340
2013-1-16,30,27,24,28,26,23,100,92,85,30.04,29.92,29.83,4,3,1,7,4,,0.00,7,,33
2013-1-17,36,28,21,29,26,19,93,79,59,30.09,30.02,29.89,14,6,3,8,3,,0.00,6,Snow,90
2013-1-18,32,30,28,28,27,25,93,83,64,29.86,29.61,29.44,15,4,0,16,13,,0.00,8,Snow,119
2013-1-19,33,32,30,30,28,24,93,82,68,29.50,29.45,29.39,9,5,3,16,10,,0.00,8,Snow,62
2013-1-20,32,30,28,30,28,25,100,89,73,29.47,29.37,29.27,8,4,1,13,9,,0.00,7,Snow,18
2013-1-21,34,28,22,30,28,21,100,88,76,29.52,29.37,29.27,7,4,0,5,3,,0.00,7,,201
2013-1-22,37,28,18,32,27,16,100,84,61,29.70,29.58,29.50,12,4,0,18,7,,0.04,7,Fog-Snow,80
2013-1-23,36,34,33,32,30,28,93,80,71,29.83,29.76,29.68,8,6,3,14,11,,0.02,7,Snow,74
2013-1-24,35,34,33,31,28,25,87,75,62,30.15,30.02,29.83,19,8,6,12,7,,0.00,7,,55
2013-1-25,37,32,28,34,28,25,93,78,61,30.12,29.91,29.56,19,7,3,15,6,,0.04,7,,154
2013-1-26,46,40,35,42,36,34,93,81,57,29.83,29.70,29.53,19,7,1,17,10,,0.03,6,,225
2013-1-27,50,44,39,48,37,28,94,69,37,29.64,29.45,29.27,19,7,4,29,17,43,0.08,4,Rain,238
2013-1-28,52,44,35,46,38,32,93,78,60,29.82,29.67,29.50,19,8,4,25,12,37,0.04,7,Rain,230
2013-1-29,56,52,48,52,49,43,94,84,71,29.65,29.60,29.53,19,7,3,24,14,37,0.03,7,Rain,230
2013-1-30,52,48,44,52,40,32,94,69,34,30.05,29.75,29.50,19,8,3,30,17,47,0.01,4,Rain,254
2013-1-31,50,47,44,42,37,32,76,64,43,30.04,29.87,29.80,19,9,6,26,16,41,0.04,5,Rain,247